createdAt,value
2024-01-29T00:04:34.060Z,95290.74
2024-01-29T00:05:08.186Z,95290.58
2024-01-29T00:05:42.506Z,95289.33
2024-01-29T00:06:16.003Z,95292.14
2024-01-29T00:06:50.324Z,95287.27
2024-01-29T00:07:24.283Z,95291.58
2024-01-29T00:08:15.354Z,95289.95
2024-01-29T00:08:48.883Z,95291.81
2024-01-29T00:09:23.397Z,95286.78
2024-01-29T00:09:57.340Z,95293.00
2024-01-29T00:10:31.697Z,95284.11
2024-01-29T00:11:07.671Z,95288.02
2024-01-29T00:11:56.703Z,95281.94
2024-01-29T00:12:32.084Z,95285.83
2024-01-29T00:13:08.678Z,95282.86
2024-01-29T00:13:46.267Z,95283.08
2024-01-29T00:14:21.902Z,95280.98
2024-01-29T00:15:34.104Z,95282.05
2024-01-29T00:16:08.230Z,95282.35
2024-01-29T00:16:42.079Z,95279.05
2024-01-29T00:17:15.916Z,95281.82
2024-01-29T00:17:49.981Z,95281.52
2024-01-29T00:18:23.716Z,95281.53
2024-01-29T00:19:16.081Z,95276.61
2024-01-29T00:19:49.875Z,95280.48
2024-01-29T00:20:23.830Z,95279.21
2024-01-29T00:20:59.309Z,95279.77
2024-01-29T00:21:33.386Z,95278.89
2024-01-29T00:22:07.581Z,95279.10
2024-01-29T00:22:55.378Z,95276.00
2024-01-29T00:23:29.493Z,95278.23
2024-01-29T00:24:03.583Z,95275.88
2024-01-29T00:24:38.680Z,95276.25
2024-01-29T00:25:14.044Z,95275.02
2024-01-29T00:25:48.492Z,95277.64
2024-01-29T00:26:35.280Z,95267.48
2024-01-29T00:27:10.277Z,95274.86
2024-01-29T00:27:44.547Z,95270.20
2024-01-29T00:28:18.151Z,95273.70
2024-01-29T00:28:51.955Z,95269.73
2024-01-29T00:29:26.361Z,95265.33
2024-01-29T00:30:15.666Z,95269.89
2024-01-29T00:30:49.471Z,95272.88
2024-01-29T00:31:24.810Z,95272.66
2024-01-29T00:31:59.916Z,95270.91
2024-01-29T00:32:33.919Z,95274.34
2024-01-29T00:33:07.766Z,95271.43
2024-01-29T00:33:55.455Z,95274.00
2024-01-29T00:34:29.756Z,95270.92
2024-01-29T00:35:04.511Z,95271.60
2024-01-29T00:35:38.941Z,95272.65
2024-01-29T00:36:12.792Z,95277.27
2024-01-29T00:36:46.429Z,95275.66
2024-01-29T00:37:35.450Z,95275.14
2024-01-29T00:38:09.303Z,95276.61
2024-01-29T00:38:43.378Z,95274.71
2024-01-29T00:39:16.906Z,95277.04
2024-01-29T00:39:52.470Z,95274.80
2024-01-29T00:40:26.713Z,95275.70
2024-01-29T00:41:16.885Z,95275.31
2024-01-29T00:41:53.914Z,95278.31
2024-01-29T00:42:27.780Z,95276.34
2024-01-29T00:43:02.798Z,95275.13
2024-01-29T00:43:36.565Z,95276.89
2024-01-29T00:44:10.352Z,95271.79
2024-01-29T00:44:57.941Z,95276.17
2024-01-29T00:45:31.938Z,95277.34
2024-01-29T00:46:06.587Z,95274.88
2024-01-29T00:46:41.391Z,95278.30
2024-01-29T00:47:15.519Z,95274.37
2024-01-29T00:47:49.544Z,95276.77
2024-01-29T00:48:37.946Z,95277.02
2024-01-29T00:49:12.207Z,95271.16
2024-01-29T00:49:46.497Z,95270.80
2024-01-29T00:50:21.065Z,95271.31
2024-01-29T00:50:54.522Z,95268.20
2024-01-29T00:51:28.103Z,95267.62
2024-01-29T00:52:19.894Z,95266.69
2024-01-29T00:52:53.566Z,95266.59
2024-01-29T00:53:27.917Z,95267.64
2024-01-29T00:54:01.317Z,95268.30
2024-01-29T00:54:35.127Z,95269.63
2024-01-29T00:55:09.177Z,95267.85
2024-01-29T00:56:00.774Z,95263.09
2024-01-29T00:56:34.591Z,95267.86
2024-01-29T00:57:08.799Z,95266.08
2024-01-29T00:57:42.675Z,95264.66
2024-01-29T00:58:16.748Z,95259.32
2024-01-29T00:58:51.846Z,95266.58
2024-01-29T01:10:35.801Z,95269.86
2024-01-29T01:11:10.319Z,95269.29
2024-01-29T01:11:44.439Z,95260.73
2024-01-29T01:12:17.833Z,95271.13
2024-01-29T01:12:51.466Z,95267.21
2024-01-29T01:13:25.818Z,95260.83
2024-01-29T01:14:13.036Z,95263.86
2024-01-29T01:14:47.030Z,95261.86
2024-01-29T01:15:21.849Z,95261.45
2024-01-29T01:15:56.084Z,95258.39
2024-01-29T01:16:29.867Z,95261.30
2024-01-29T01:17:03.577Z,95258.23
2024-01-29T01:17:54.350Z,95257.29
2024-01-29T01:18:28.214Z,95255.55
2024-01-29T01:19:04.711Z,95257.30
2024-01-29T01:19:38.305Z,95256.50
2024-01-29T01:20:15.011Z,95257.16
2024-01-29T01:20:48.897Z,95249.35
2024-01-29T01:21:36.785Z,95255.85
2024-01-29T01:22:11.544Z,95254.47
2024-01-29T01:22:45.581Z,95251.40
2024-01-29T01:23:19.140Z,95251.96
2024-01-29T01:23:52.860Z,95253.66
2024-01-29T01:24:26.608Z,95253.86
2024-01-29T01:25:19.440Z,95242.96
2024-01-29T01:25:53.555Z,95247.71
2024-01-29T01:26:27.448Z,95249.77
2024-01-29T01:27:00.857Z,95249.50
2024-01-29T01:27:34.691Z,95250.55
2024-01-29T01:28:10.406Z,95247.02
2024-01-29T01:28:57.430Z,95245.88
2024-01-29T01:29:31.400Z,95247.17
2024-01-29T01:30:08.235Z,95242.80
2024-01-29T01:30:45.326Z,95247.41
2024-01-29T01:31:21.813Z,95238.56
2024-01-29T01:32:01.340Z,95241.79
2024-01-29T01:47:18.724Z,95230.07
2024-01-29T01:47:52.673Z,95228.48
2024-01-29T01:48:27.491Z,95231.98
2024-01-29T01:49:01.945Z,95230.39
2024-01-29T01:49:36.273Z,95228.58
2024-01-29T01:50:11.357Z,95222.50
2024-01-29T01:50:59.028Z,95223.14
2024-01-29T01:51:33.328Z,95221.41
2024-01-29T01:52:08.257Z,95223.08
2024-01-29T01:52:42.173Z,95218.52
2024-01-29T01:53:16.054Z,95221.95
2024-01-29T01:53:56.125Z,95220.19
2024-01-29T01:54:41.439Z,95219.11
2024-01-29T01:55:15.763Z,95216.86
2024-01-29T01:55:49.808Z,95209.81
2024-01-29T01:56:24.247Z,95214.77
2024-01-29T01:56:59.570Z,95218.99
2024-01-29T01:57:34.266Z,95217.27
2024-01-29T01:58:21.536Z,95209.78
2024-01-29T01:58:58.621Z,95216.63
2024-01-29T01:59:37.168Z,95217.75
2024-01-29T02:00:12.936Z,95214.16
2024-01-29T02:00:47.622Z,95214.75
2024-01-29T02:05:35.171Z,95217.71
2024-01-29T02:06:09.085Z,95216.98
2024-01-29T02:06:43.007Z,95214.52
2024-01-29T02:07:16.703Z,95216.29
2024-01-29T02:07:50.597Z,95213.27
2024-01-29T02:08:24.975Z,95213.58
2024-01-29T02:09:16.530Z,95210.80
2024-01-29T02:09:51.075Z,95209.13
2024-01-29T02:10:25.558Z,95213.20
2024-01-29T02:11:02.125Z,95212.17
2024-01-29T02:11:35.985Z,95205.81
2024-01-29T02:12:10.318Z,95209.91
2024-01-29T02:12:57.527Z,95212.00
2024-01-29T02:13:32.566Z,95211.18
2024-01-29T02:14:06.747Z,95211.88
2024-01-29T02:14:40.263Z,95212.56
2024-01-29T02:15:13.748Z,95214.73
2024-01-29T02:15:47.483Z,95205.48
2024-01-29T02:16:35.106Z,95211.23
2024-01-29T02:17:08.834Z,95215.65
2024-01-29T02:17:42.246Z,95210.85
2024-01-29T02:18:16.349Z,95211.06
2024-01-29T02:18:50.185Z,95207.34
2024-01-29T02:19:24.477Z,95209.82
2024-01-29T02:20:14.822Z,95210.85
2024-01-29T02:20:49.296Z,95211.20
2024-01-29T02:21:24.162Z,95208.30
2024-01-29T02:21:58.789Z,95208.21
2024-01-29T02:22:32.784Z,95203.88
2024-01-29T02:23:06.480Z,95205.84
2024-01-29T02:23:56.867Z,95205.62
2024-01-29T02:24:32.270Z,95208.81
2024-01-29T02:25:06.216Z,95206.98
2024-01-29T02:25:40.146Z,95203.63
2024-01-29T02:26:15.229Z,95203.70
2024-01-29T02:26:49.358Z,95202.66
2024-01-29T02:27:38.931Z,95203.52
2024-01-29T02:28:12.833Z,95207.17
2024-01-29T02:28:46.556Z,95203.09
2024-01-29T02:29:20.530Z,95204.65
2024-01-29T02:29:54.888Z,95200.38
2024-01-29T02:30:29.031Z,95204.35
2024-01-29T02:31:14.865Z,95203.81
2024-01-29T02:31:50.080Z,95203.92
2024-01-29T02:32:23.642Z,95203.27
2024-01-29T02:32:58.673Z,95203.05
2024-01-29T02:33:32.906Z,95199.87
2024-01-29T02:34:07.191Z,95198.84
2024-01-29T02:34:57.525Z,95198.38
2024-01-29T02:35:31.870Z,95199.15
2024-01-29T02:36:06.815Z,95198.73
2024-01-29T02:36:45.887Z,95194.27
2024-01-29T02:37:21.129Z,95197.72
2024-01-29T02:37:56.070Z,95194.98
2024-01-29T02:49:33.836Z,95187.55
2024-01-29T02:50:08.734Z,95184.33
2024-01-29T02:50:42.786Z,95189.21
2024-01-29T02:51:16.867Z,95190.66
2024-01-29T02:51:50.805Z,95183.95
2024-01-29T02:52:24.284Z,95186.98
2024-01-29T02:53:16.098Z,95189.30
2024-01-29T02:53:50.115Z,95190.02
2024-01-29T02:54:24.435Z,95190.20
2024-01-29T02:54:59.038Z,95192.45
2024-01-29T02:55:33.226Z,95192.23
2024-01-29T02:56:07.906Z,95188.61
2024-01-29T02:56:57.430Z,95194.44
2024-01-29T02:57:32.080Z,95190.67
2024-01-29T02:58:06.191Z,95190.64
2024-01-29T02:58:39.820Z,95187.08
2024-01-29T02:59:13.721Z,95189.54
2024-01-29T02:59:47.803Z,95187.60
2024-01-29T03:03:42.890Z,95178.58
2024-01-29T03:04:18.784Z,95185.85
2024-01-29T03:05:19.535Z,95182.91
2024-01-29T03:05:54.015Z,95181.59
2024-01-29T03:06:27.983Z,95182.24
2024-01-29T03:07:02.750Z,95180.98
2024-01-29T03:07:38.522Z,95176.65
2024-01-29T03:08:15.745Z,95180.04
2024-01-29T03:08:59.493Z,95179.88
2024-01-29T03:09:33.475Z,95177.79
2024-01-29T03:10:07.560Z,95179.94
2024-01-29T03:10:41.345Z,95178.96
2024-01-29T03:11:15.259Z,95173.52
2024-01-29T03:11:49.459Z,95172.48
2024-01-29T03:12:40.822Z,95174.02
2024-01-29T03:13:15.415Z,95177.30
2024-01-29T03:13:49.825Z,95173.52
2024-01-29T03:14:24.001Z,95175.94
2024-01-29T03:14:57.794Z,95173.84
2024-01-29T03:15:31.405Z,95168.64
2024-01-29T03:16:22.698Z,95173.25
2024-01-29T03:16:56.887Z,95169.29
2024-01-29T03:17:31.178Z,95172.04
2024-01-29T03:18:07.914Z,95168.63
2024-01-29T03:18:42.794Z,95169.40
2024-01-29T03:19:16.476Z,95170.70
2024-01-29T03:20:05.664Z,95169.40
2024-01-29T03:20:40.220Z,95170.64
2024-01-29T03:21:15.311Z,95169.62
2024-01-29T03:21:48.997Z,95167.80
2024-01-29T03:22:22.703Z,95170.23
2024-01-29T03:22:57.123Z,95171.31
2024-01-29T03:23:44.091Z,95164.23
2024-01-29T03:24:18.204Z,95168.73
2024-01-29T03:24:52.047Z,95167.30
2024-01-29T03:25:25.777Z,95169.02
2024-01-29T03:25:59.996Z,95171.58
2024-01-29T03:26:33.891Z,95168.06
2024-01-29T03:27:25.866Z,95161.41
2024-01-29T03:27:59.854Z,95168.01
2024-01-29T03:28:33.772Z,95163.98
2024-01-29T03:29:07.686Z,95159.67
2024-01-29T03:29:41.328Z,95158.56
2024-01-29T03:30:15.530Z,95160.73
2024-01-29T03:31:01.994Z,95163.55
2024-01-29T03:31:36.193Z,95161.73
2024-01-29T03:32:11.150Z,95161.99
2024-01-29T03:32:44.825Z,95161.83
2024-01-29T03:33:21.038Z,95163.90
2024-01-29T03:33:55.583Z,95162.56
2024-01-29T03:34:43.762Z,95163.33
2024-01-29T03:35:18.453Z,95163.86
2024-01-29T03:35:52.180Z,95163.77
2024-01-29T03:36:25.888Z,95164.50
2024-01-29T03:37:00.431Z,95161.67
2024-01-29T03:37:34.377Z,95166.66
2024-01-29T03:38:26.018Z,95158.73
2024-01-29T03:39:05.063Z,95163.85
2024-01-29T03:39:41.331Z,95159.95
2024-01-29T03:40:15.692Z,95162.14
2024-01-29T03:40:49.622Z,95162.38
2024-01-29T03:41:23.177Z,95161.70
2024-01-29T03:42:06.301Z,95162.45
2024-01-29T03:42:40.208Z,95162.77
2024-01-29T03:43:14.198Z,95161.59
2024-01-29T03:43:48.400Z,95160.69
2024-01-29T03:44:22.158Z,95162.59
2024-01-29T03:44:55.902Z,95165.16
2024-01-29T03:45:48.324Z,95165.22
2024-01-29T03:46:25.074Z,95162.86
2024-01-29T03:46:58.762Z,95164.08
2024-01-29T03:47:32.637Z,95163.47
2024-01-29T03:48:06.974Z,95164.07
2024-01-29T03:48:41.255Z,95164.87
2024-01-29T03:49:26.827Z,95165.55
2024-01-29T03:50:02.047Z,95166.27
2024-01-29T03:50:35.999Z,95162.97
2024-01-29T03:51:09.585Z,95164.60
2024-01-29T03:51:43.396Z,95165.08
2024-01-29T03:52:16.898Z,95165.98
2024-01-29T03:53:09.930Z,95169.41
2024-01-29T03:53:45.090Z,95174.33
2024-01-29T03:54:18.819Z,95169.69
2024-01-29T03:54:53.965Z,95170.20
2024-01-29T03:55:29.267Z,95171.39
2024-01-29T03:56:05.037Z,95171.39
2024-01-29T03:56:50.144Z,95168.40
2024-01-29T03:57:24.059Z,95166.48
2024-01-29T03:57:58.602Z,95165.21
2024-01-29T03:58:33.495Z,95169.77
2024-01-29T03:59:12.737Z,95169.21
2024-01-29T03:59:46.605Z,95169.46
2024-01-29T04:00:32.026Z,95170.11
2024-01-29T04:01:06.118Z,95168.92
2024-01-29T04:01:42.881Z,95168.64
2024-01-29T04:02:16.672Z,95168.28
2024-01-29T04:02:51.578Z,95169.80
2024-01-29T04:03:26.509Z,95163.16
2024-01-29T04:04:13.628Z,95168.29
2024-01-29T04:04:49.964Z,95164.28
2024-01-29T04:05:24.431Z,95168.48
2024-01-29T04:05:59.069Z,95166.73
2024-01-29T04:06:33.163Z,95164.34
2024-01-29T04:07:07.038Z,95166.02
2024-01-29T04:07:57.758Z,95163.23
2024-01-29T04:08:31.830Z,95168.22
2024-01-29T04:09:05.885Z,95167.20
2024-01-29T04:09:40.319Z,95168.38
2024-01-29T04:10:15.102Z,95165.84
2024-01-29T04:10:49.247Z,95163.45
2024-01-29T04:11:35.938Z,95165.33
2024-01-29T04:12:11.907Z,95165.04
2024-01-29T04:12:46.675Z,95154.12
2024-01-29T04:13:22.446Z,95158.63
2024-01-29T04:13:58.849Z,95156.77
2024-01-29T04:14:35.210Z,95158.08
2024-01-29T04:15:17.765Z,95164.38
2024-01-29T04:15:51.680Z,95165.38
2024-01-29T04:16:26.336Z,95162.76
2024-01-29T04:17:00.400Z,95157.70
2024-01-29T04:17:34.347Z,95161.55
2024-01-29T04:18:08.215Z,95154.50
2024-01-29T04:18:59.240Z,95154.27
2024-01-29T04:19:33.710Z,95161.70
2024-01-29T04:20:08.691Z,95160.84
2024-01-29T04:20:42.388Z,95160.46
2024-01-29T04:21:16.799Z,95161.03
2024-01-29T04:21:51.106Z,95160.45
2024-01-29T04:22:38.227Z,95159.39
2024-01-29T04:23:12.273Z,95160.30
2024-01-29T04:23:46.280Z,95155.61
2024-01-29T04:24:20.611Z,95159.20
2024-01-29T04:24:54.378Z,95158.53
2024-01-29T04:25:28.270Z,95153.89
2024-01-29T04:26:19.773Z,95151.63
2024-01-29T04:26:53.542Z,95154.93
2024-01-29T04:27:27.237Z,95156.83
2024-01-29T04:28:01.583Z,95152.03
2024-01-29T04:28:35.336Z,95152.39
2024-01-29T04:29:12.510Z,95152.34
2024-01-29T04:30:03.120Z,95152.73
2024-01-29T04:30:37.384Z,95154.60
2024-01-29T04:31:11.199Z,95153.85
2024-01-29T04:31:44.976Z,95153.92
2024-01-29T04:32:18.640Z,95150.98
2024-01-29T04:32:52.074Z,95154.29
2024-01-29T04:33:40.531Z,95152.30
2024-01-29T04:34:14.542Z,95156.90
2024-01-29T04:34:49.397Z,95150.71
2024-01-29T04:35:23.842Z,95160.48
2024-01-29T04:35:57.825Z,95158.79
2024-01-29T04:36:31.621Z,95156.73
2024-01-29T04:37:18.852Z,95157.52
2024-01-29T04:37:52.613Z,95157.54
2024-01-29T04:38:26.858Z,95158.31
2024-01-29T04:39:00.998Z,95159.20
2024-01-29T04:39:34.941Z,95152.30
2024-01-29T04:40:10.003Z,95150.95
2024-01-29T04:41:00.618Z,95151.05
2024-01-29T04:41:34.011Z,95157.70
2024-01-29T04:42:09.155Z,95156.69
2024-01-29T04:42:43.734Z,95152.46
2024-01-29T04:43:17.823Z,95149.37
2024-01-29T04:43:51.585Z,95152.88
2024-01-29T04:44:39.706Z,95153.89
2024-01-29T04:45:14.850Z,95154.89
2024-01-29T04:45:49.500Z,95154.87
2024-01-29T04:46:25.756Z,95147.20
2024-01-29T04:47:00.878Z,95152.30
2024-01-29T04:47:36.328Z,95149.35
2024-01-29T04:55:36.769Z,95160.92
2024-01-29T04:56:11.634Z,95163.98
2024-01-29T04:56:45.572Z,95161.11
2024-01-29T04:57:22.111Z,95156.43
2024-01-29T04:57:56.274Z,95159.39
2024-01-29T04:58:30.508Z,95159.70
2024-01-29T04:59:19.883Z,95156.71
2024-01-29T04:59:53.832Z,95158.86
2024-01-29T05:00:28.300Z,95154.79
2024-01-29T05:01:03.132Z,95156.28
2024-01-29T05:01:37.576Z,95155.40
2024-01-29T05:02:12.398Z,95157.21
2024-01-29T05:02:58.793Z,95160.52
2024-01-29T05:03:32.975Z,95158.92
2024-01-29T05:04:07.031Z,95157.20
2024-01-29T05:04:42.003Z,95161.37
2024-01-29T05:05:16.756Z,95159.20
2024-01-29T05:05:50.604Z,95158.81
2024-01-29T05:06:40.709Z,95157.98
2024-01-29T05:07:15.755Z,95158.96
2024-01-29T05:07:50.242Z,95162.59
2024-01-29T05:08:24.827Z,95161.85
2024-01-29T05:08:59.082Z,95165.04
2024-01-29T05:09:33.020Z,95163.88
2024-01-29T05:10:21.821Z,95163.86
2024-01-29T05:10:55.331Z,95158.72
2024-01-29T05:11:29.199Z,95159.36
2024-01-29T05:12:04.231Z,95164.34
2024-01-29T05:12:38.358Z,95166.40
2024-01-29T05:13:12.334Z,95164.69
2024-01-29T05:13:59.642Z,95166.33
2024-01-29T05:14:33.199Z,95166.69
2024-01-29T05:15:07.529Z,95166.45
2024-01-29T05:15:41.720Z,95169.25
2024-01-29T05:16:17.405Z,95166.02
2024-01-29T05:16:53.339Z,95169.93
2024-01-29T05:17:40.519Z,95167.01
2024-01-29T05:18:14.067Z,95166.79
2024-01-29T05:18:49.735Z,95166.42
2024-01-29T05:19:23.149Z,95167.67
2024-01-29T05:19:57.054Z,95167.32
2024-01-29T05:20:31.484Z,95166.13
2024-01-29T05:21:21.389Z,95166.95
2024-01-29T05:21:55.954Z,95167.05
2024-01-29T05:22:30.875Z,95164.56
2024-01-29T05:23:04.642Z,95164.86
2024-01-29T05:23:38.816Z,95165.46
2024-01-29T05:24:12.708Z,95165.33
2024-01-29T05:25:03.710Z,95165.61
2024-01-29T05:25:37.757Z,95166.40
2024-01-29T05:26:11.434Z,95164.38
2024-01-29T05:26:45.279Z,95165.84
2024-01-29T05:27:19.233Z,95165.77
2024-01-29T05:27:53.061Z,95165.77
2024-01-29T05:28:45.183Z,95166.90
2024-01-29T05:29:18.774Z,95167.43
2024-01-29T05:29:52.415Z,95164.80
2024-01-29T05:30:25.905Z,95164.02
2024-01-29T05:31:00.038Z,95166.13
2024-01-29T05:31:34.139Z,95166.88
2024-01-29T05:32:26.404Z,95165.92
2024-01-29T05:32:59.914Z,95167.98
2024-01-29T05:33:34.409Z,95163.69
2024-01-29T05:34:08.848Z,95166.23
2024-01-29T05:34:43.030Z,95164.34
2024-01-29T05:35:17.252Z,95162.23
2024-01-29T05:36:08.712Z,95164.48
2024-01-29T05:36:43.028Z,95164.34
2024-01-29T05:37:16.765Z,95166.92
2024-01-29T05:37:50.335Z,95165.66
2024-01-29T05:38:24.277Z,95167.86
2024-01-29T05:38:57.811Z,95160.42
2024-01-29T05:39:45.574Z,95165.26
2024-01-29T05:40:20.015Z,95164.73
2024-01-29T05:40:54.410Z,95164.25
2024-01-29T05:41:29.566Z,95166.73
2024-01-29T05:42:05.227Z,95169.81
2024-01-29T05:42:41.307Z,95161.73
2024-01-29T05:43:27.554Z,95166.84
2024-01-29T05:44:00.922Z,95165.36
2024-01-29T05:44:34.386Z,95168.77
2024-01-29T05:45:08.100Z,95167.60
2024-01-29T05:45:43.994Z,95169.91
2024-01-29T05:46:17.725Z,95166.67
2024-01-29T05:47:08.240Z,95170.50
2024-01-29T05:47:42.155Z,95168.01
2024-01-29T05:48:16.198Z,95168.84
2024-01-29T05:48:50.116Z,95165.45
2024-01-29T05:49:24.360Z,95166.92
2024-01-29T05:49:58.235Z,95165.64
2024-01-29T05:50:49.339Z,95163.81
2024-01-29T05:51:23.716Z,95165.10
2024-01-29T05:51:58.888Z,95165.58
2024-01-29T05:52:33.486Z,95165.05
2024-01-29T05:53:07.336Z,95163.70
2024-01-29T05:53:41.229Z,95162.34
2024-01-29T05:54:32.686Z,95168.39
2024-01-29T05:55:06.738Z,95167.13
2024-01-29T05:55:40.988Z,95163.90
2024-01-29T05:56:14.566Z,95167.07
2024-01-29T05:56:50.992Z,95166.20
2024-01-29T05:57:25.348Z,95166.14
2024-01-29T05:58:09.946Z,95167.83
2024-01-29T05:58:46.489Z,95170.38
2024-01-29T05:59:20.289Z,95171.84
2024-01-29T05:59:54.064Z,95173.67
2024-01-29T06:00:28.017Z,95169.13
2024-01-29T06:01:02.040Z,95173.85
2024-01-29T06:01:55.798Z,95174.11
2024-01-29T06:02:30.602Z,95175.05
2024-01-29T06:03:04.371Z,95173.31
2024-01-29T06:03:38.088Z,95176.63
2024-01-29T06:04:11.865Z,95176.37
2024-01-29T06:04:46.157Z,95175.67
2024-01-29T06:05:33.312Z,95177.45
2024-01-29T06:06:07.755Z,95179.23
2024-01-29T06:06:43.012Z,95175.93
2024-01-29T06:07:16.886Z,95179.96
2024-01-29T06:07:52.973Z,95180.16
2024-01-29T06:08:28.200Z,95179.67
2024-01-29T06:09:16.296Z,95178.75
2024-01-29T06:09:50.020Z,95178.15
2024-01-29T06:10:24.266Z,95175.98
2024-01-29T06:10:58.134Z,95180.52
2024-01-29T06:11:32.935Z,95182.75
2024-01-29T06:12:06.856Z,95174.81
2024-01-29T06:12:54.931Z,95180.08
2024-01-29T06:13:30.725Z,95180.83
2024-01-29T06:14:04.471Z,95180.66
2024-01-29T06:14:38.401Z,95180.76
2024-01-29T06:15:11.942Z,95176.79
2024-01-29T06:15:46.198Z,95176.77
2024-01-29T06:16:34.131Z,95177.60
2024-01-29T06:17:07.917Z,95179.48
2024-01-29T06:17:42.486Z,95180.01
2024-01-29T06:18:16.869Z,95169.58
2024-01-29T06:18:51.458Z,95179.66
2024-01-29T06:19:26.846Z,95179.29
2024-01-29T06:20:18.482Z,95180.73
2024-01-29T06:20:53.913Z,95176.74
2024-01-29T06:21:27.945Z,95179.13
2024-01-29T06:22:02.920Z,95177.27
2024-01-29T06:22:36.724Z,95176.33
2024-01-29T06:23:11.371Z,95178.42
2024-01-29T06:38:26.383Z,95176.92
2024-01-29T06:39:00.793Z,95178.45
2024-01-29T06:39:36.891Z,95178.46
2024-01-29T06:40:10.898Z,95178.15
2024-01-29T06:40:44.769Z,95180.96
2024-01-29T06:41:21.181Z,95181.63
2024-01-29T06:42:10.901Z,95182.86
2024-01-29T06:42:44.806Z,95184.86
2024-01-29T06:43:18.496Z,95184.83
2024-01-29T06:43:52.674Z,95185.17
2024-01-29T06:44:26.448Z,95184.06
2024-01-29T06:44:59.993Z,95185.34
2024-01-29T06:45:52.576Z,95184.00
2024-01-29T06:46:27.111Z,95176.41
2024-01-29T06:47:01.133Z,95184.92
2024-01-29T06:47:35.178Z,95182.91
2024-01-29T06:48:09.894Z,95185.39
2024-01-29T06:48:43.771Z,95183.11
2024-01-29T06:49:32.321Z,95184.91
2024-01-29T06:50:06.202Z,95183.16
2024-01-29T06:50:42.968Z,95187.10
2024-01-29T06:51:17.623Z,95176.92
2024-01-29T06:51:51.736Z,95184.34
2024-01-29T06:52:25.601Z,95187.61
2024-01-29T06:53:11.937Z,95189.25
2024-01-29T06:53:45.725Z,95188.61
2024-01-29T06:54:20.067Z,95189.10
2024-01-29T06:54:54.164Z,95188.23
2024-01-29T06:55:27.770Z,95181.73
2024-01-29T06:56:04.957Z,95185.21
2024-01-29T06:56:54.368Z,95189.43
2024-01-29T06:57:28.540Z,95193.39
2024-01-29T06:58:05.432Z,95194.82
2024-01-29T06:58:39.547Z,95192.36
2024-01-29T06:59:14.756Z,95192.90
2024-01-29T06:59:48.920Z,95194.50
2024-01-29T07:00:35.970Z,95195.76
2024-01-29T07:01:09.528Z,95196.52
2024-01-29T07:01:43.649Z,95197.91
2024-01-29T07:02:18.134Z,95200.48
2024-01-29T07:02:52.614Z,95199.50
2024-01-29T07:03:26.734Z,95197.81
2024-01-29T07:04:17.353Z,95194.98
2024-01-29T07:04:50.942Z,95200.16
2024-01-29T07:05:24.856Z,95195.46
2024-01-29T07:05:59.015Z,95199.98
2024-01-29T07:06:33.004Z,95198.67
2024-01-29T07:07:07.698Z,95202.67
2024-01-29T07:07:58.681Z,95198.70
2024-01-29T07:08:33.020Z,95201.34
2024-01-29T07:09:06.758Z,95202.04
2024-01-29T07:09:41.714Z,95203.36
2024-01-29T07:10:16.358Z,95206.11
2024-01-29T07:10:50.420Z,95205.98
2024-01-29T07:11:37.655Z,95200.29
2024-01-29T07:12:11.640Z,95206.67
2024-01-29T07:12:45.202Z,95209.06
2024-01-29T07:13:20.683Z,95201.85
2024-01-29T07:13:54.253Z,95203.79
2024-01-29T07:14:28.000Z,95203.52
2024-01-29T07:15:16.951Z,95203.14
2024-01-29T07:15:52.513Z,95205.13
2024-01-29T07:16:26.362Z,95201.48
2024-01-29T07:17:00.175Z,95204.16
2024-01-29T07:17:33.891Z,95203.97
2024-01-29T07:18:07.715Z,95193.70
2024-01-29T07:18:56.687Z,95204.02
2024-01-29T07:19:35.219Z,95207.66
2024-01-29T07:20:10.498Z,95204.64
2024-01-29T07:20:46.700Z,95204.88
2024-01-29T07:21:20.665Z,95203.31
2024-01-29T07:22:38.915Z,95202.53
2024-01-29T07:23:13.004Z,95202.77
2024-01-29T07:23:46.679Z,95204.27
2024-01-29T07:24:20.309Z,95203.84
2024-01-29T07:24:54.089Z,95206.90
2024-01-29T07:25:28.245Z,95205.48
2024-01-29T07:26:11.820Z,95202.97
2024-01-29T07:26:46.160Z,95206.56
2024-01-29T07:27:22.812Z,95203.36
2024-01-29T07:27:58.191Z,95199.10
2024-01-29T07:28:33.365Z,95202.64
2024-01-29T07:29:07.180Z,95208.21
2024-01-29T07:29:53.670Z,95204.34
2024-01-29T07:30:28.027Z,95207.27
2024-01-29T07:31:02.053Z,95207.45
2024-01-29T07:31:35.617Z,95203.95
2024-01-29T07:32:09.283Z,95206.13
2024-01-29T07:32:44.141Z,95202.57
2024-01-29T07:51:46.255Z,95214.39
2024-01-29T07:52:20.472Z,95214.25
2024-01-29T07:52:54.160Z,95217.04
2024-01-29T07:53:27.962Z,95216.58
2024-01-29T07:54:01.412Z,95217.52
2024-01-29T07:54:36.522Z,95221.05
2024-01-29T07:55:24.737Z,95216.89
2024-01-29T07:55:58.427Z,95218.50
2024-01-29T07:56:32.228Z,95220.12
2024-01-29T07:57:05.980Z,95217.48
2024-01-29T07:57:39.651Z,95217.77
2024-01-29T07:58:13.302Z,95219.17
2024-01-29T07:59:01.625Z,95220.14
2024-01-29T07:59:36.484Z,95217.55
2024-01-29T08:00:11.349Z,95221.40
2024-01-29T08:00:47.720Z,95219.83
2024-01-29T08:01:21.895Z,95221.09
2024-01-29T08:01:56.243Z,95220.00
2024-01-29T08:02:43.755Z,95219.62
2024-01-29T08:03:17.598Z,95220.16
2024-01-29T08:03:51.613Z,95216.49
2024-01-29T08:04:26.039Z,95217.19
2024-01-29T08:05:01.669Z,95215.08
2024-01-29T08:05:37.618Z,95209.60
2024-01-29T08:10:06.394Z,95211.55
2024-01-29T08:10:41.778Z,95217.88
2024-01-29T08:11:16.176Z,95218.69
2024-01-29T08:11:51.528Z,95210.02
2024-01-29T08:12:25.344Z,95214.88
2024-01-29T08:12:59.085Z,95219.04
2024-01-29T08:13:42.617Z,95219.21
2024-01-29T08:14:16.167Z,95221.09
2024-01-29T08:14:50.706Z,95220.36
2024-01-29T08:15:25.215Z,95217.89
2024-01-29T08:16:00.764Z,95216.77
2024-01-29T08:16:34.648Z,95218.85
2024-01-29T08:17:23.812Z,95216.49
2024-01-29T08:17:57.356Z,95217.65
2024-01-29T08:18:31.532Z,95220.02
2024-01-29T08:19:05.709Z,95219.31
2024-01-29T08:19:40.033Z,95216.59
2024-01-29T08:20:15.519Z,95215.05
2024-01-29T08:21:05.413Z,95213.75
2024-01-29T08:21:39.349Z,95214.90
2024-01-29T08:22:13.188Z,95215.05
2024-01-29T08:22:46.818Z,95217.27
2024-01-29T08:23:20.490Z,95217.59
2024-01-29T08:23:54.665Z,95210.98
2024-01-29T08:24:44.954Z,95217.39
2024-01-29T08:25:23.633Z,95217.77
2024-01-29T08:25:58.785Z,95219.02
2024-01-29T08:26:33.947Z,95217.02
2024-01-29T08:27:07.759Z,95216.66
2024-01-29T08:28:20.704Z,95216.77
2024-01-29T08:28:56.346Z,95214.04
2024-01-29T08:29:30.835Z,95211.80
2024-01-29T08:30:05.559Z,95213.99
2024-01-29T08:30:40.236Z,95216.26
2024-01-29T08:31:14.946Z,95211.56
2024-01-29T08:32:05.838Z,95207.05
2024-01-29T08:32:39.260Z,95205.30
2024-01-29T08:33:14.144Z,95202.86
2024-01-29T08:33:47.889Z,95204.20
2024-01-29T08:34:21.566Z,95204.46
2024-01-29T08:34:56.055Z,95204.23
2024-01-29T08:42:59.347Z,95199.75
2024-01-29T08:43:33.246Z,95205.08
2024-01-29T08:44:07.816Z,95208.52
2024-01-29T08:44:41.548Z,95206.85
2024-01-29T08:45:20.845Z,95200.23
2024-01-29T08:45:57.132Z,95204.21
2024-01-29T08:46:40.109Z,95201.52
2024-01-29T08:47:14.149Z,95201.84
2024-01-29T08:47:47.940Z,95202.13
2024-01-29T08:48:21.768Z,95195.71
2024-01-29T08:48:55.282Z,95201.31
2024-01-29T08:49:32.161Z,95198.37
2024-01-29T08:50:21.984Z,95199.40
2024-01-29T08:50:55.987Z,95198.59
2024-01-29T08:51:29.787Z,95197.22
2024-01-29T08:52:03.556Z,95200.98
2024-01-29T08:52:40.486Z,95198.42